createdAt,value
2023-02-19T00:01:54.481Z,7.90
2023-02-19T00:04:24.144Z,7.90
2023-02-19T00:06:54.432Z,7.90
2023-02-19T00:09:24.060Z,7.90
2023-02-19T00:11:52.953Z,7.90
2023-02-19T00:14:22.473Z,7.90
2023-02-19T00:16:51.287Z,7.90
2023-02-19T00:19:22.245Z,7.90
2023-02-19T00:21:52.811Z,7.90
2023-02-19T00:24:24.702Z,7.80
2023-02-19T00:26:52.713Z,7.90
2023-02-19T00:29:22.676Z,7.90
2023-02-19T00:31:52.045Z,7.90
2023-02-19T00:34:20.493Z,8.00
2023-02-19T00:36:48.513Z,8.00
2023-02-19T00:39:18.604Z,8.00
2023-02-19T00:41:51.440Z,8.00
2023-02-19T00:44:31.770Z,8.00
2023-02-19T00:46:59.768Z,8.00
2023-02-19T00:49:27.725Z,8.00
2023-02-19T00:52:04.077Z,8.00
2023-02-19T00:54:32.724Z,7.90
2023-02-19T00:57:02.047Z,8.00
2023-02-19T00:59:30.725Z,8.00
2023-02-19T01:01:58.954Z,8.10
2023-02-19T01:04:26.997Z,8.10
2023-02-19T01:06:55.153Z,8.00
2023-02-19T01:09:33.458Z,8.00
2023-02-19T01:12:08.363Z,7.90
2023-02-19T01:14:37.125Z,7.80
2023-02-19T01:17:16.286Z,7.70
2023-02-19T01:19:44.317Z,7.70
2023-02-19T01:22:21.503Z,7.70
2023-02-19T01:24:49.531Z,7.70
2023-02-19T01:27:20.064Z,7.70
2023-02-19T01:29:48.072Z,7.80
2023-02-19T01:32:45.047Z,7.80
2023-02-19T01:35:13.120Z,7.70
2023-02-19T01:37:41.105Z,7.80
2023-02-19T01:40:10.181Z,7.80
2023-02-19T01:42:51.816Z,7.80
2023-02-19T01:45:30.282Z,7.90
2023-02-19T01:48:03.618Z,7.90
2023-02-19T01:50:36.877Z,8.00
2023-02-19T01:53:07.936Z,8.10
2023-02-19T01:55:36.828Z,8.20
2023-02-19T01:58:07.158Z,8.30
2023-02-19T02:00:35.825Z,8.30
2023-02-19T02:03:05.134Z,8.30
2023-02-19T02:05:43.449Z,8.40
2023-02-19T02:08:29.937Z,8.40
2023-02-19T02:11:04.775Z,8.40
2023-02-19T02:13:36.012Z,8.40
2023-02-19T02:16:29.133Z,8.50
2023-02-19T02:19:07.246Z,8.50
2023-02-19T02:21:58.054Z,8.40
2023-02-19T02:24:45.962Z,8.40
2023-02-19T02:27:29.385Z,8.40
2023-02-19T02:30:25.370Z,8.40
2023-02-19T02:33:01.450Z,8.40
2023-02-19T02:35:35.421Z,8.50
2023-02-19T02:38:31.386Z,8.50
2023-02-19T02:40:59.906Z,8.60
2023-02-19T02:43:58.774Z,8.60
2023-02-19T02:46:33.697Z,8.70
2023-02-19T02:49:06.346Z,8.70
2023-02-19T02:51:37.465Z,8.70
2023-02-19T02:54:26.433Z,8.70
2023-02-19T02:56:56.742Z,8.70
2023-02-19T02:59:27.154Z,8.70
2023-02-19T03:02:12.016Z,8.70
2023-02-19T03:05:06.389Z,8.70
2023-02-19T03:07:39.648Z,8.80
2023-02-19T03:10:11.086Z,9.00
2023-02-19T03:13:00.160Z,9.10
2023-02-19T03:15:51.708Z,9.00
2023-02-19T03:18:40.938Z,9.10
2023-02-19T03:21:22.822Z,9.10
2023-02-19T03:24:09.304Z,9.10
2023-02-19T03:26:55.524Z,9.10
2023-02-19T03:29:27.108Z,9.40
2023-02-19T03:31:58.933Z,9.30
2023-02-19T03:34:33.985Z,9.20
2023-02-19T03:37:07.856Z,9.00
2023-02-19T03:39:44.286Z,8.90
2023-02-19T03:42:26.034Z,8.80
2023-02-19T03:45:16.171Z,8.60
2023-02-19T03:47:50.307Z,8.60
2023-02-19T03:50:22.643Z,8.70
2023-02-19T03:53:00.737Z,8.70
2023-02-19T03:55:33.790Z,8.70
2023-02-19T03:58:08.625Z,8.80
2023-02-19T04:00:41.298Z,8.80
2023-02-19T04:03:17.173Z,8.80
2023-02-19T04:05:52.180Z,8.70
2023-02-19T04:08:26.707Z,8.70
2023-02-19T04:10:55.728Z,8.70
2023-02-19T04:13:28.150Z,8.60
2023-02-19T04:16:05.973Z,8.60
2023-02-19T04:18:38.775Z,8.60
2023-02-19T04:21:10.292Z,8.60
2023-02-19T04:23:44.502Z,8.70
2023-02-19T04:26:13.660Z,8.80
2023-02-19T04:28:43.702Z,8.90
2023-02-19T04:31:31.510Z,8.90
2023-02-19T04:33:59.533Z,9.10
2023-02-19T04:36:28.908Z,9.10
2023-02-19T04:38:57.033Z,9.10
2023-02-19T04:41:25.049Z,9.10
2023-02-19T04:43:53.075Z,9.10
2023-02-19T04:46:21.602Z,9.10
2023-02-19T04:48:49.665Z,9.10
2023-02-19T04:51:17.711Z,9.10
2023-02-19T04:53:47.073Z,9.20
2023-02-19T04:56:31.479Z,9.20
2023-02-19T04:58:59.702Z,9.20
2023-02-19T05:01:27.837Z,9.10
2023-02-19T05:03:55.857Z,9.20
2023-02-19T05:06:23.854Z,9.10
2023-02-19T05:08:53.180Z,9.10
2023-02-19T05:11:21.196Z,9.10
2023-02-19T05:13:49.209Z,9.10
2023-02-19T05:16:17.667Z,9.10
2023-02-19T05:18:47.169Z,9.10
2023-02-19T05:21:15.613Z,9.10
2023-02-19T05:23:43.797Z,9.10
2023-02-19T05:26:17.086Z,9.10
2023-02-19T05:28:51.163Z,9.10
2023-02-19T05:31:19.550Z,9.00
2023-02-19T05:33:51.144Z,9.10
2023-02-19T05:36:22.053Z,9.00
2023-02-19T05:38:54.047Z,9.10
2023-02-19T05:41:25.649Z,9.20
2023-02-19T05:43:54.178Z,9.20
2023-02-19T05:46:24.070Z,9.30
2023-02-19T05:48:53.957Z,9.40
2023-02-19T05:51:23.339Z,9.50
2023-02-19T05:53:51.789Z,9.50
2023-02-19T05:56:29.073Z,9.50
2023-02-19T05:58:57.486Z,9.50
2023-02-19T06:01:28.458Z,9.50
2023-02-19T06:03:57.624Z,9.50
2023-02-19T06:06:26.845Z,9.50
2023-02-19T06:08:55.485Z,9.50
2023-02-19T06:11:25.432Z,9.40
2023-02-19T06:13:56.479Z,9.40
2023-02-19T06:16:26.603Z,9.50
2023-02-19T06:18:54.667Z,9.50
2023-02-19T06:21:22.607Z,9.40
2023-02-19T06:23:50.590Z,9.40
2023-02-19T06:26:22.051Z,9.40
2023-02-19T06:28:53.408Z,9.30
2023-02-19T06:31:23.101Z,9.40
2023-02-19T06:33:51.564Z,9.40
2023-02-19T06:36:21.928Z,9.30
2023-02-19T06:38:50.298Z,9.30
2023-02-19T06:41:19.339Z,9.20
2023-02-19T06:43:47.575Z,9.30
2023-02-19T06:46:16.948Z,9.20
2023-02-19T06:48:45.988Z,9.20
2023-02-19T06:51:15.057Z,9.20
2023-02-19T06:53:43.161Z,9.20
2023-02-19T06:56:25.088Z,9.20
2023-02-19T06:58:53.337Z,9.10
2023-02-19T07:01:23.027Z,9.20
2023-02-19T07:03:53.705Z,9.30
2023-02-19T07:06:21.887Z,9.30
2023-02-19T07:08:50.116Z,9.30
2023-02-19T07:11:18.687Z,9.40
2023-02-19T07:13:56.606Z,9.40
2023-02-19T07:16:27.760Z,9.30
2023-02-19T07:18:57.953Z,9.20
2023-02-19T07:21:26.199Z,9.10
2023-02-19T07:23:54.506Z,8.90
2023-02-19T07:26:25.670Z,9.00
2023-02-19T07:29:00.593Z,9.30
2023-02-19T07:31:37.255Z,9.70
2023-02-19T07:34:05.284Z,9.80
2023-02-19T07:36:33.258Z,10.00
2023-02-19T07:39:01.488Z,10.10
2023-02-19T07:41:29.555Z,10.10
2023-02-19T07:43:57.611Z,10.50
2023-02-19T07:46:25.733Z,10.50
2023-02-19T07:48:55.183Z,10.20
2023-02-19T07:51:30.487Z,10.00
2023-02-19T07:53:58.960Z,9.80
2023-02-19T07:56:28.773Z,9.70
2023-02-19T07:58:56.795Z,9.70
2023-02-19T08:01:52.312Z,9.70
2023-02-19T08:04:21.962Z,9.60
2023-02-19T08:06:49.954Z,9.70
2023-02-19T08:09:23.981Z,9.80
2023-02-19T08:12:13.755Z,10.00
2023-02-19T08:14:43.832Z,10.00
2023-02-19T08:17:11.841Z,10.10
2023-02-19T08:19:41.331Z,10.10
2023-02-19T08:22:09.408Z,10.30
2023-02-19T08:24:41.147Z,10.40
2023-02-19T08:27:16.689Z,10.30
2023-02-19T08:29:55.742Z,10.30
2023-02-19T08:32:23.708Z,10.40
2023-02-19T08:34:53.057Z,10.40
2023-02-19T08:37:21.030Z,10.40
2023-02-19T08:39:49.009Z,10.60
2023-02-19T08:42:16.999Z,10.50
2023-02-19T08:44:44.980Z,10.50
2023-02-19T08:47:13.029Z,10.60
2023-02-19T08:49:40.990Z,10.60
2023-02-19T08:52:10.362Z,10.60
2023-02-19T08:54:38.505Z,10.60
2023-02-19T08:57:06.480Z,10.70
2023-02-19T08:59:34.465Z,10.60
2023-02-19T09:02:02.552Z,10.70
2023-02-19T09:04:37.740Z,10.70
2023-02-19T09:07:07.749Z,10.70
2023-02-19T09:09:45.463Z,10.70
2023-02-19T09:12:33.490Z,10.80
2023-02-19T09:15:01.732Z,10.80
2023-02-19T09:17:30.110Z,10.80
2023-02-19T09:20:02.180Z,10.80
2023-02-19T09:22:30.162Z,10.70
2023-02-19T09:24:59.540Z,10.60
2023-02-19T09:27:27.969Z,10.70
2023-02-19T09:30:05.847Z,10.50
2023-02-19T09:32:58.222Z,10.50
2023-02-19T09:35:26.252Z,10.50
2023-02-19T09:37:54.193Z,10.60
2023-02-19T09:40:23.817Z,10.60
2023-02-19T09:42:52.807Z,10.70
2023-02-19T09:45:24.892Z,10.80
2023-02-19T09:47:56.687Z,10.90
2023-02-19T09:50:33.765Z,10.90
2023-02-19T09:53:05.868Z,10.90
2023-02-19T09:55:36.991Z,11.00
2023-02-19T09:58:18.239Z,11.10
2023-02-19T10:00:49.774Z,11.10
2023-02-19T10:03:25.219Z,11.00
2023-02-19T10:05:54.966Z,11.10
2023-02-19T10:08:22.950Z,11.20
2023-02-19T10:10:53.762Z,11.20
2023-02-19T10:13:23.914Z,11.20
2023-02-19T10:15:55.649Z,11.30
2023-02-19T10:18:25.687Z,11.40
2023-02-19T10:20:54.537Z,11.30
2023-02-19T10:23:23.617Z,11.50
2023-02-19T10:25:57.100Z,11.60
2023-02-19T10:28:29.894Z,11.50
2023-02-19T10:31:00.419Z,11.70
2023-02-19T10:33:29.280Z,12.00
2023-02-19T10:35:59.128Z,12.00
2023-02-19T10:38:32.221Z,11.90
2023-02-19T10:41:05.991Z,12.10
2023-02-19T10:43:41.714Z,12.10
2023-02-19T10:46:17.874Z,12.40
2023-02-19T10:48:51.672Z,12.30
2023-02-19T10:51:22.926Z,12.30
2023-02-19T10:53:52.618Z,12.50
2023-02-19T10:56:27.191Z,12.40
2023-02-19T10:58:55.364Z,12.40
2023-02-19T11:01:28.068Z,12.60
2023-02-19T11:04:16.819Z,12.70
2023-02-19T11:06:45.821Z,12.70
2023-02-19T11:09:26.606Z,12.80
2023-02-19T11:11:57.854Z,12.90
2023-02-19T11:14:27.786Z,12.80
2023-02-19T11:16:58.061Z,12.70
2023-02-19T11:19:36.379Z,12.70
2023-02-19T11:22:20.185Z,12.80
2023-02-19T11:24:50.610Z,12.70
2023-02-19T11:27:22.722Z,12.70
2023-02-19T11:29:50.826Z,12.60
2023-02-19T11:32:27.723Z,12.60
2023-02-19T11:35:17.727Z,12.70
2023-02-19T11:37:57.522Z,12.60
2023-02-19T11:40:38.920Z,12.40
2023-02-19T11:43:21.231Z,12.20
2023-02-19T11:45:58.992Z,12.10
2023-02-19T11:48:46.652Z,12.00
2023-02-19T11:51:31.101Z,12.40
2023-02-19T11:54:13.213Z,12.80
2023-02-19T11:56:45.091Z,13.10
2023-02-19T11:59:20.758Z,13.20
2023-02-19T12:02:17.837Z,13.40
2023-02-19T12:05:31.450Z,13.80
2023-02-19T12:08:29.600Z,13.50
2023-02-19T12:11:26.726Z,13.20
2023-02-19T12:14:09.966Z,13.40
2023-02-19T12:16:45.647Z,13.10
2023-02-19T12:19:24.465Z,13.30
2023-02-19T12:22:12.773Z,13.40
2023-02-19T12:25:17.434Z,13.20
2023-02-19T12:27:56.787Z,12.80
2023-02-19T12:30:34.541Z,12.70
2023-02-19T12:33:30.471Z,12.50
2023-02-19T12:36:09.669Z,12.40
2023-02-19T12:38:44.836Z,12.30
2023-02-19T12:41:21.820Z,12.20
2023-02-19T12:43:56.433Z,12.10
2023-02-19T12:46:30.338Z,12.10
2023-02-19T12:49:06.069Z,12.00
2023-02-19T12:51:41.719Z,11.70
2023-02-19T12:54:15.899Z,11.80
2023-02-19T12:56:49.038Z,11.80
2023-02-19T12:59:25.163Z,11.70
2023-02-19T13:01:58.811Z,11.70
2023-02-19T13:04:36.274Z,11.60
2023-02-19T13:07:08.226Z,11.50
2023-02-19T13:09:39.201Z,11.50
2023-02-19T13:12:13.727Z,11.60
2023-02-19T13:14:44.449Z,11.60
2023-02-19T13:17:22.430Z,11.60
2023-02-19T13:19:57.569Z,11.60
2023-02-19T13:22:51.412Z,11.70
2023-02-19T13:25:20.608Z,11.70
2023-02-19T13:28:21.203Z,11.80
2023-02-19T13:31:02.768Z,11.80
2023-02-19T13:33:44.927Z,11.70
2023-02-19T13:36:17.461Z,11.80
2023-02-19T13:38:48.844Z,11.80
2023-02-19T13:41:29.513Z,12.10
2023-02-19T13:44:00.339Z,12.50
2023-02-19T13:46:39.486Z,12.90
2023-02-19T13:49:43.326Z,13.00
2023-02-19T13:52:42.951Z,13.10
2023-02-19T13:55:46.735Z,13.30
2023-02-19T13:58:52.096Z,13.40
2023-02-19T14:01:20.975Z,13.60
2023-02-19T14:03:54.757Z,13.40
2023-02-19T14:06:28.951Z,13.50
2023-02-19T14:09:00.336Z,13.40
2023-02-19T14:12:03.345Z,13.20
2023-02-19T14:14:37.653Z,12.90
2023-02-19T14:17:21.773Z,13.00
2023-02-19T14:19:53.486Z,12.80
2023-02-19T14:23:07.569Z,12.80
2023-02-19T14:25:54.830Z,12.70
2023-02-19T14:28:43.916Z,12.80
2023-02-19T14:31:33.756Z,12.80
2023-02-19T14:34:05.065Z,12.90
2023-02-19T14:36:44.037Z,12.90
2023-02-19T14:39:18.071Z,13.00
2023-02-19T14:41:51.485Z,12.90
2023-02-19T14:44:23.384Z,12.70
2023-02-19T14:46:58.711Z,12.80
2023-02-19T14:49:30.941Z,12.80
2023-02-19T14:52:01.485Z,12.60
2023-02-19T14:54:39.689Z,12.60
2023-02-19T14:57:16.830Z,12.60
2023-02-19T14:59:55.139Z,12.50
2023-02-19T15:02:25.836Z,12.50
2023-02-19T15:04:54.503Z,12.20
2023-02-19T15:07:25.534Z,12.00
2023-02-19T15:09:57.030Z,11.90
2023-02-19T15:12:29.014Z,11.90
2023-02-19T15:15:00.745Z,11.90
2023-02-19T15:17:30.696Z,11.80
2023-02-19T15:20:02.919Z,11.70
2023-02-19T15:22:32.516Z,11.60
2023-02-19T15:25:02.507Z,11.60
2023-02-19T15:27:32.865Z,11.60
2023-02-19T15:30:00.898Z,11.50
2023-02-19T15:32:29.534Z,11.50
2023-02-19T15:34:59.012Z,11.50
2023-02-19T15:37:30.358Z,11.40
2023-02-19T15:40:02.244Z,11.40
2023-02-19T15:42:34.678Z,11.30
2023-02-19T15:45:05.768Z,11.30
2023-02-19T15:47:39.154Z,11.20
2023-02-19T15:50:11.646Z,11.30
2023-02-19T15:52:47.869Z,11.30
2023-02-19T15:55:32.964Z,11.10
2023-02-19T15:58:09.615Z,11.10
2023-02-19T16:00:41.910Z,11.10
2023-02-19T16:03:18.509Z,11.00
2023-02-19T16:05:47.569Z,10.90
2023-02-19T16:08:22.111Z,10.80
2023-02-19T16:10:58.536Z,10.80
2023-02-19T16:13:30.458Z,10.70
2023-02-19T16:16:03.613Z,10.60
2023-02-19T16:18:32.088Z,10.50
2023-02-19T16:21:00.924Z,10.50
2023-02-19T16:23:28.981Z,10.40
2023-02-19T16:26:01.941Z,10.40
2023-02-19T16:28:37.625Z,10.40
2023-02-19T16:31:08.133Z,10.40
2023-02-19T16:33:39.826Z,10.40
2023-02-19T16:36:22.845Z,10.40
2023-02-19T16:39:01.722Z,10.40
2023-02-19T16:41:29.990Z,10.30
2023-02-19T16:44:06.461Z,10.40
2023-02-19T16:46:34.562Z,10.40
2023-02-19T16:49:02.500Z,10.30
2023-02-19T16:51:30.538Z,10.40
2023-02-19T16:53:58.509Z,10.40
2023-02-19T16:56:28.822Z,10.40
2023-02-19T16:58:56.768Z,10.30
2023-02-19T17:01:27.198Z,10.20
2023-02-19T17:03:59.612Z,10.20
2023-02-19T17:06:28.106Z,10.10
2023-02-19T17:08:56.065Z,10.10
2023-02-19T17:11:24.049Z,10.10
2023-02-19T17:13:52.225Z,10.10
2023-02-19T17:16:21.742Z,10.10
2023-02-19T17:18:51.942Z,10.00
2023-02-19T17:21:22.940Z,9.90
2023-02-19T17:23:51.071Z,9.90
2023-02-19T17:26:20.881Z,9.80
2023-02-19T17:28:49.156Z,9.80
2023-02-19T17:31:17.947Z,9.90
2023-02-19T17:33:46.805Z,10.00
2023-02-19T17:36:20.121Z,10.00
2023-02-19T17:38:48.192Z,10.00
2023-02-19T17:41:16.372Z,10.10
2023-02-19T17:43:44.375Z,10.00
2023-02-19T17:46:16.220Z,10.00
2023-02-19T17:48:44.242Z,9.90
2023-02-19T17:51:13.361Z,9.90
2023-02-19T17:53:43.088Z,9.90
2023-02-19T17:56:16.593Z,9.90
2023-02-19T17:58:44.570Z,9.80
2023-02-19T18:01:12.983Z,9.90
2023-02-19T18:03:41.734Z,9.90
2023-02-19T18:06:09.861Z,9.90
2023-02-19T18:08:37.811Z,9.90
2023-02-19T18:11:08.581Z,9.90
2023-02-19T18:13:36.562Z,9.80
2023-02-19T18:16:06.106Z,9.80
2023-02-19T18:18:34.144Z,9.70
2023-02-19T18:21:02.101Z,9.70
2023-02-19T18:23:30.061Z,9.70
2023-02-19T18:25:58.018Z,9.60
2023-02-19T18:28:28.195Z,9.50
2023-02-19T18:30:56.334Z,9.60
2023-02-19T18:33:24.336Z,9.50
2023-02-19T18:35:52.304Z,9.50
2023-02-19T18:38:20.836Z,9.50
2023-02-19T18:40:48.792Z,9.50
2023-02-19T18:43:16.808Z,9.40
2023-02-19T18:45:46.627Z,9.40
2023-02-19T18:48:14.617Z,9.30
2023-02-19T18:50:42.878Z,9.30
2023-02-19T18:53:11.493Z,9.20
2023-02-19T18:55:39.467Z,9.30
2023-02-19T18:58:07.694Z,9.20
2023-02-19T19:00:35.793Z,9.20
2023-02-19T19:03:06.443Z,9.10
2023-02-19T19:05:34.412Z,9.10
2023-02-19T19:08:02.433Z,9.10
2023-02-19T19:10:31.298Z,9.00
2023-02-19T19:12:59.499Z,9.00
2023-02-19T19:15:27.643Z,8.90
2023-02-19T19:17:55.923Z,8.90
2023-02-19T19:20:25.442Z,8.90
2023-02-19T19:22:54.159Z,8.90
2023-02-19T19:25:23.699Z,8.90
2023-02-19T19:27:55.634Z,8.80
2023-02-19T19:30:23.835Z,8.90
2023-02-19T19:32:53.876Z,8.80
2023-02-19T19:35:22.642Z,8.80
2023-02-19T19:37:51.967Z,8.80
2023-02-19T19:40:20.510Z,8.80
2023-02-19T19:42:51.376Z,8.90
2023-02-19T19:45:19.661Z,8.80
2023-02-19T19:47:48.692Z,8.80
2023-02-19T19:50:18.206Z,8.80
2023-02-19T19:52:46.219Z,8.80
2023-02-19T19:55:16.177Z,8.70
2023-02-19T19:57:44.387Z,8.70
2023-02-19T20:00:17.632Z,8.60
2023-02-19T20:02:46.500Z,8.60
2023-02-19T20:05:15.519Z,8.50
2023-02-19T20:07:43.534Z,8.50
2023-02-19T20:10:13.009Z,8.50
2023-02-19T20:12:47.903Z,8.50
2023-02-19T20:15:21.131Z,8.40
2023-02-19T20:17:49.414Z,8.50
2023-02-19T20:20:18.859Z,8.40
2023-02-19T20:22:46.975Z,8.40
2023-02-19T20:25:16.051Z,8.30
2023-02-19T20:28:07.490Z,8.40
2023-02-19T20:30:37.124Z,8.40
2023-02-19T20:33:05.252Z,8.30
2023-02-19T20:35:33.849Z,8.30
2023-02-19T20:38:01.848Z,8.30
2023-02-19T20:40:31.274Z,8.30
2023-02-19T20:43:00.847Z,8.30
2023-02-19T20:45:31.200Z,8.30
2023-02-19T20:47:59.218Z,8.30
2023-02-19T20:50:27.460Z,8.20
2023-02-19T20:52:55.757Z,8.20
2023-02-19T20:55:25.948Z,8.30
2023-02-19T20:57:54.151Z,8.30
2023-02-19T21:00:23.209Z,8.30
2023-02-19T21:02:52.692Z,8.30
2023-02-19T21:05:23.571Z,8.30
2023-02-19T21:07:51.745Z,8.40
2023-02-19T21:10:20.040Z,8.40
2023-02-19T21:12:48.062Z,8.50
2023-02-19T21:15:16.264Z,8.40
2023-02-19T21:17:46.638Z,8.50
2023-02-19T21:20:17.938Z,8.50
2023-02-19T21:22:46.249Z,8.40
2023-02-19T21:25:21.582Z,8.50
2023-02-19T21:27:49.555Z,8.50
2023-02-19T21:30:18.005Z,8.50
2023-02-19T21:32:48.753Z,8.50
2023-02-19T21:35:18.510Z,8.50
2023-02-19T21:37:46.624Z,8.50
2023-02-19T21:40:15.321Z,8.40
2023-02-19T21:42:43.495Z,8.40
2023-02-19T21:45:11.920Z,8.40
2023-02-19T21:47:40.154Z,8.30
2023-02-19T21:50:09.430Z,8.30
2023-02-19T21:52:39.047Z,8.30
2023-02-19T21:55:07.805Z,8.30
2023-02-19T21:57:35.796Z,8.20
2023-02-19T22:00:05.421Z,8.20
2023-02-19T22:02:33.586Z,8.20
2023-02-19T22:05:18.064Z,8.20
2023-02-19T22:07:48.556Z,8.20
2023-02-19T22:10:16.774Z,8.10
2023-02-19T22:12:44.856Z,8.10
2023-02-19T22:15:12.927Z,8.10
2023-02-19T22:17:41.065Z,8.00
2023-02-19T22:20:09.542Z,8.00
2023-02-19T22:22:44.421Z,8.00
2023-02-19T22:25:13.978Z,7.90
2023-02-19T22:27:42.327Z,8.00
2023-02-19T22:30:11.340Z,7.90
2023-02-19T22:32:41.395Z,7.90
2023-02-19T22:35:09.678Z,8.00
2023-02-19T22:37:38.870Z,8.00
2023-02-19T22:40:08.135Z,8.20
2023-02-19T22:42:38.592Z,8.20
2023-02-19T22:45:07.064Z,8.10
2023-02-19T22:47:35.004Z,8.20
2023-02-19T22:50:03.139Z,8.20
2023-02-19T22:52:31.124Z,8.20
2023-02-19T22:54:59.850Z,8.20
2023-02-19T22:57:28.722Z,8.20
2023-02-19T22:59:58.044Z,8.10
2023-02-19T23:02:25.988Z,8.20
2023-02-19T23:04:54.264Z,8.20
2023-02-19T23:07:22.240Z,8.20
2023-02-19T23:09:50.189Z,8.10
2023-02-19T23:12:18.238Z,8.10
2023-02-19T23:14:47.666Z,8.10
2023-02-19T23:17:17.010Z,8.10
2023-02-19T23:19:44.998Z,8.10
2023-02-19T23:22:13.164Z,8.10
2023-02-19T23:24:41.101Z,8.00
2023-02-19T23:27:09.113Z,8.00
2023-02-19T23:29:37.168Z,8.00
2023-02-19T23:32:05.469Z,8.00
2023-02-19T23:34:34.877Z,8.00
2023-02-19T23:37:11.750Z,8.00
2023-02-19T23:39:39.787Z,8.00
2023-02-19T23:42:07.799Z,8.00
2023-02-19T23:44:35.938Z,8.00
2023-02-19T23:47:03.891Z,8.10
2023-02-19T23:49:31.842Z,8.10
2023-02-19T23:52:01.170Z,8.20
2023-02-19T23:54:40.615Z,8.10
2023-02-19T23:57:08.692Z,8.00
2023-02-19T23:59:36.651Z,8.10
